Language selection

Features

My Weather Profile Weather Topics  | 

Explorer - northwestern half: Past 24 Hour Conditions

 

Sandspit Airport

09:00 PM PST 26 January 2020
Disclaimer

This table is a summary of hourly weather conditions for the past 24 hours.
Please note that these observations might not always be representative of weather conditions over their associated marine area.

Date / Time
(PST)
Wind(knots) Conditions Visibility(km) Pressure(kPa) Air tempC) Relative humidity(%) Dew pointC)
26 January 2020
21:00 SW 9 gust 23 Mostly Cloudy 16 99.9 5 83 3
20:00 S 10 gust 15 Light Rain 16 99.6 7 92 5
19:00 S 9 Light Rain 16 99.5 6 95 5
18:00 S 11 Light Rain 16 99.4 7 94 6
17:00 SSE 25 gust 32 Light Rain 10 99.3 7 94 6
16:00 SE 26 Mostly Cloudy 13 99.3 7 94 7
15:00 SE 24 gust 30 Mist 10 99.4 8 95 7
14:00 SE 24 Cloudy 11 99.6 7 94 6
13:00 SE 20 gust 28 Mostly Cloudy 16 99.6 7 90 6
12:00 SSE 24 Mostly Cloudy 16 99.6 7 89 5
11:00 SE 21 gust 26 Mostly Cloudy 16 99.6 7 93 6
10:00 SSE 22 Light Rain 16 99.5 6 91 5
9:00 SE 19 gust 24 Cloudy 16 99.5 6 88 5
8:00 SSE 15 gust 22 Cloudy 16 99.5 6 90 5
7:00 SSE 19 gust 28 Cloudy 16 99.5 7 88 5
6:00 SSE 28 gust 34 Cloudy 13 99.6 7 87 5
5:00 SSE 19 gust 26 Mist 6 99.7 7 93 6
4:00 SSE 23 gust 30 Mist 6 99.7 7 93 6
3:00 SSE 28 gust 33 Mist 8 99.7 7 93 6
2:00 SSE 27 gust 33 Mist 8 99.7 7 93 6
1:00 SE 29 gust 39 Mist 8 99.8 7 93 6
0:00 SE 28 gust 36 Mist 10 99.9 7 93 6
25 January 2020
23:00 SE 26 gust 32 Mist 8 100.0 8 90 6
22:00 SE 26 gust 31 Mist 8 100.1 8 90 6
21:00 SE 25 gust 33 Mist 8 100.2 8 89 6

Zoom-in to make a selection

Map of Pacific - North Coast marine weather areas Middle Nomad - 46004 South Nomad - 46036 Dixon Entrance Central - 46145 South Moresby - 46147 Nanakwa Shoal - 46181 North Hecate Strait - 46183 North Nomad - 46184 South Hecate Strait - 46185 West Sea Otter - 46204 West Dixon Entrance - 46205 East Dellwood - 46207 West Moresby - 46208 Sartine Island Cape St.James Kindakun Rocks Langara Island Masset Municipal Airport Rose Spit Sandspit Airport Bella Bella Airport Bella Coola Airport Bonilla Island Cathedral Point Cumshewa Island Grey Islet Holland Rock Lucy Islands Lightstation Prince Rupert Airport
Legend:
buoy Buoy
land station Land Station

Pacific - North Coast Area

Another Region

What we are doing

Date modified: